Pagina principale
METAR-TAF:

METAR-TAF

Aeroporti :

Cerklje ob Krki, Slovenia

latitudine: 45-53-59N, longitudine: 15-30-55E, altezza: 157 m

Osservazione

Il bollettino è stato emesso 17 minuti fa, alle 03:00 UTC
Vento 13 kt da ovest/sud-ovest
Temperature 10°C
Umidità 71%
Pressione 1015 hPa
Visibilità 10 km o più

METAR: LJCE 240300Z AUTO 25013KT 9999 NSC 10/05 Q1015

Ora: 04:17 (03:17 UTC)

Previsione

Il bollettino è stato emesso 1 ora e 17 minuti fa, alle 02:00 UTC
Previsione valida dal 24 alle 03 UTC al 24 alle 12 UTC
Vento 5 kt da ovest/sud-ovest
Visibilità 10 km o più
nessuna nube inferiore a 1500 m e nessun cumulonembo
Evoluzione graduale
dal 24 alle 05 UTC al 24 alle 06 UTC
Vento 5 kt da est
Temporaneamente
dal 24 alle 05 UTC al 24 alle 12 UTC
Nuvoloso ad un'altezza di 3500 ft

TAF: LJCE 240200Z 2403/2412 24005KT CAVOK BECMG 2405/2406 08005KT TEMPO 2405/2412 BKN035

Osservazioni e previsioni meteorologiche di più di 4000 aeroporti (messaggi METAR e TAF).

Le stazioni disponibili sono rappresentate dai dischi gialli e rossi sulla carta.

Puntare il mouse per vedere il nome della stazione.

Clicca sopra per visualizzare le osservazioni e previsioni meteorologiche.

Per cambiare la mappa : fare clic sui pulsanti verdi con una croce nera per ingrandire, il pulsante verde con un trattino per diminuire, o sulla freccia verde per le mappe adiacenti.


METAR-TAF: